Pagrindinis puslapis
METAR-TAF:

METAR-TAF

Oro uostai :

Salta, Argentina

platuma: 24-51S, ilguma: 065-29W, Aukštis: 1238 m

Dabartinis oras

Ataskaita buvo paskelbta 54 minutes, ne 12:00 UTC
Vėjas 5 kt nuo kintamojo kryptimis
Temperatūra 7°C
Drėgmė 93%
Slėgis 1018 hPa
Matomumas: 7000 m

METAR: SASA 241200Z VRB05KT 7000 NSC 07/06 Q1018

Laikas: 09:54 (12:54 UTC)

Prognozė

Ataskaita buvo paskelbta 1 valandą ir 54 minutes, ne 11:00 UTC
Prognozė galioja nuo 24 metu 12 UTC su 25 metu 12 UTC
Vėjas 3 kt nuo kintamojo kryptimis
Matomumas 10 km arba daugiau
nėra debesų žemiau 1500 m ir nėra kamuolinių lietaus debesų
Tapsmas
nuo 24 metu 16 UTC su 24 metu 19 UTC
Vėjas 5 kt iš Pietų/Pietryčių
Tapsmas
nuo 25 metu 03 UTC su 25 metu 06 UTC
Vėjas 5 kt iš Vakarų

TAF: SASA 241100Z 2412/2512 VRB03KT CAVOK TX26/2418Z TN07/2510Z BECMG 2416/2419 16005KT BECMG 2503/2506 27005KT

Orai ataskaitas ir orų prognozės (METAR, TAF).

turimą stotys yra geltonos ir raudonos taškus žemėlapyje.

Perkelti pele per norėdami pamatyti stoties vardą.

Tada spustelėkite, norėdami matyti oro stebėjimo ir prognozės.

Norėdami pakeisti žemėlapį: spustelėkite ant žalios mygtukų su juodo kryžiaus žemyn,; žalią mygtuką su brūkšneliu, jei norite nutolinti; arba žalių rodyklių gretimoms žemėlapius.


METAR-TAF: